sensor_id;sensor_type;location;lat;lon;timestamp;pressure;altitude;pressure_sealevel;temperature;humidity
58955;BME280;45815;52.334;5.024;2022-07-10T00:01:02;102814.22;;;16.99;100.00
58955;BME280;45815;52.334;5.024;2022-07-10T00:03:27;102808.94;;;16.99;100.00
58955;BME280;45815;52.334;5.024;2022-07-10T00:05:53;102800.97;;;16.99;100.00
58955;BME280;45815;52.334;5.024;2022-07-10T00:08:18;102796.59;;;17.01;100.00
58955;BME280;45815;52.334;5.024;2022-07-10T00:10:43;102793.88;;;16.98;100.00
58955;BME280;45815;52.334;5.024;2022-07-10T00:13:09;102794.59;;;16.91;100.00
58955;BME280;45815;52.334;5.024;2022-07-10T00:15:34;102791.00;;;16.89;100.00
58955;BME280;45815;52.334;5.024;2022-07-10T00:18:00;102793.53;;;16.84;100.00
58955;BME280;45815;52.334;5.024;2022-07-10T00:20:25;102787.25;;;16.81;100.00
58955;BME280;45815;52.334;5.024;2022-07-10T00:22:50;102795.25;;;16.82;100.00
58955;BME280;45815;52.334;5.024;2022-07-10T00:25:16;102791.66;;;16.79;100.00
58955;BME280;45815;52.334;5.024;2022-07-10T00:27:41;102789.75;;;16.75;100.00
58955;BME280;45815;52.334;5.024;2022-07-10T00:30:08;102783.44;;;16.70;100.00
58955;BME280;45815;52.334;5.024;2022-07-10T00:32:35;102791.50;;;16.74;100.00
58955;BME280;45815;52.334;5.024;2022-07-10T00:35:00;102789.69;;;16.72;100.00
58955;BME280;45815;52.334;5.024;2022-07-10T00:37:27;102797.63;;;16.72;100.00
58955;BME280;45815;52.334;5.024;2022-07-10T00:39:53;102794.03;;;16.70;100.00
58955;BME280;45815;52.334;5.024;2022-07-10T00:42:18;102791.28;;;16.66;100.00
58955;BME280;45815;52.334;5.024;2022-07-10T00:44:44;102788.75;;;16.70;100.00
58955;BME280;45815;52.334;5.024;2022-07-10T00:47:11;102785.28;;;16.74;100.00
58955;BME280;45815;52.334;5.024;2022-07-10T00:49:37;102786.22;;;16.76;100.00
58955;BME280;45815;52.334;5.024;2022-07-10T00:52:06;102780.03;;;16.75;100.00
58955;BME280;45815;52.334;5.024;2022-07-10T00:54:33;102780.06;;;16.77;100.00
58955;BME280;45815;52.334;5.024;2022-07-10T00:56:59;102785.28;;;16.74;100.00
58955;BME280;45815;52.334;5.024;2022-07-10T00:59:26;102787.09;;;16.75;100.00
58955;BME280;45815;52.334;5.024;2022-07-10T01:01:53;102782.69;;;16.75;100.00
58955;BME280;45815;52.334;5.024;2022-07-10T01:04:18;102790.69;;;16.77;100.00
58955;BME280;45815;52.334;5.024;2022-07-10T01:06:44;102771.19;;;16.76;100.00
58955;BME280;45815;52.334;5.024;2022-07-10T01:09:09;102780.16;;;16.80;100.00
58955;BME280;45815;52.334;5.024;2022-07-10T01:11:36;102772.81;;;16.70;100.00
58955;BME280;45815;52.334;5.024;2022-07-10T01:14:03;102757.66;;;16.64;100.00
58955;BME280;45815;52.334;5.024;2022-07-10T01:16:29;102763.84;;;16.64;100.00
58955;BME280;45815;52.334;5.024;2022-07-10T01:18:55;102758.53;;;16.64;100.00
58955;BME280;45815;52.334;5.024;2022-07-10T01:21:34;102767.28;;;16.60;100.00
58955;BME280;45815;52.334;5.024;2022-07-10T01:24:05;102775.25;;;16.62;100.00
58955;BME280;45815;52.334;5.024;2022-07-10T01:26:31;102762.00;;;16.60;100.00
58955;BME280;45815;52.334;5.024;2022-07-10T01:28:56;102766.19;;;16.52;100.00
58955;BME280;45815;52.334;5.024;2022-07-10T01:31:26;102758.16;;;16.49;100.00
58955;BME280;45815;52.334;5.024;2022-07-10T01:33:52;102763.22;;;16.40;100.00
58955;BME280;45815;52.334;5.024;2022-07-10T01:36:19;102760.34;;;16.31;100.00
58955;BME280;45815;52.334;5.024;2022-07-10T01:38:45;102750.63;;;16.30;100.00
58955;BME280;45815;52.334;5.024;2022-07-10T01:41:11;102761.22;;;16.31;100.00
58955;BME280;45815;52.334;5.024;2022-07-10T01:43:36;102754.09;;;16.29;100.00
58955;BME280;45815;52.334;5.024;2022-07-10T01:46:05;102754.16;;;16.30;100.00
58955;BME280;45815;52.334;5.024;2022-07-10T01:48:30;102740.84;;;16.29;100.00
58955;BME280;45815;52.334;5.024;2022-07-10T01:50:56;102744.44;;;16.31;100.00
58955;BME280;45815;52.334;5.024;2022-07-10T01:53:22;102740.09;;;16.33;100.00
58955;BME280;45815;52.334;5.024;2022-07-10T01:55:48;102734.72;;;16.30;100.00
58955;BME280;45815;52.334;5.024;2022-07-10T01:58:14;102745.31;;;16.30;100.00
58955;BME280;45815;52.334;5.024;2022-07-10T02:00:40;102749.44;;;16.20;100.00
58955;BME280;45815;52.334;5.024;2022-07-10T02:03:06;102740.63;;;16.19;100.00
58955;BME280;45815;52.334;5.024;2022-07-10T02:05:49;102731.03;;;16.24;100.00
58955;BME280;45815;52.334;5.024;2022-07-10T02:08:15;102732.75;;;16.22;100.00
58955;BME280;45815;52.334;5.024;2022-07-10T02:10:40;102724.81;;;16.22;100.00
58955;BME280;45815;52.334;5.024;2022-07-10T02:13:06;102727.47;;;16.22;100.00
58955;BME280;45815;52.334;5.024;2022-07-10T02:15:31;102725.59;;;16.20;100.00
58955;BME280;45815;52.334;5.024;2022-07-10T02:17:56;102733.59;;;16.21;100.00
58955;BME280;45815;52.334;5.024;2022-07-10T02:20:22;102723.94;;;16.23;100.00
58955;BME280;45815;52.334;5.024;2022-07-10T02:22:47;102722.06;;;16.19;100.00
58955;BME280;45815;52.334;5.024;2022-07-10T02:25:13;102723.81;;;16.19;100.00
58955;BME280;45815;52.334;5.024;2022-07-10T02:27:38;102723.78;;;16.17;100.00
58955;BME280;45815;52.334;5.024;2022-07-10T02:30:04;102716.66;;;16.15;100.00
58955;BME280;45815;52.334;5.024;2022-07-10T02:32:30;102724.84;;;16.24;100.00
58955;BME280;45815;52.334;5.024;2022-07-10T02:34:55;102723.06;;;16.24;100.00
58955;BME280;45815;52.334;5.024;2022-07-10T02:37:21;102721.19;;;16.19;100.00
58955;BME280;45815;52.334;5.024;2022-07-10T02:39:46;102733.53;;;16.18;100.00
58955;BME280;45815;52.334;5.024;2022-07-10T02:42:11;102726.53;;;16.22;100.00
58955;BME280;45815;52.334;5.024;2022-07-10T02:44:37;102733.59;;;16.21;100.00
58955;BME280;45815;52.334;5.024;2022-07-10T02:47:02;102732.75;;;16.22;100.00
58955;BME280;45815;52.334;5.024;2022-07-10T02:49:28;102734.66;;;16.28;100.00
58955;BME280;45815;52.334;5.024;2022-07-10T02:51:53;102732.91;;;16.29;100.00
58955;BME280;45815;52.334;5.024;2022-07-10T02:54:18;102725.91;;;16.31;100.00
58955;BME280;45815;52.334;5.024;2022-07-10T02:56:44;102718.81;;;16.30;100.00
58955;BME280;45815;52.334;5.024;2022-07-10T02:59:09;102723.31;;;16.34;100.00
58955;BME280;45815;52.334;5.024;2022-07-10T03:01:35;102721.59;;;16.34;100.00
58955;BME280;45815;52.334;5.024;2022-07-10T03:04:00;102721.59;;;16.36;100.00
58955;BME280;45815;52.334;5.024;2022-07-10T03:06:26;102717.19;;;16.36;100.00
58955;BME280;45815;52.334;5.024;2022-07-10T03:08:52;102710.75;;;16.27;100.00
58955;BME280;45815;52.334;5.024;2022-07-10T03:11:17;102725.03;;;16.32;100.00
58955;BME280;45815;52.334;5.024;2022-07-10T03:13:43;102723.34;;;16.35;100.00
58955;BME280;45815;52.334;5.024;2022-07-10T03:16:08;102713.75;;;16.39;100.00
58955;BME280;45815;52.334;5.024;2022-07-10T03:18:34;102712.09;;;16.44;100.00
58955;BME280;45815;52.334;5.024;2022-07-10T03:21:00;102700.69;;;16.48;100.00
58955;BME280;45815;52.334;5.024;2022-07-10T03:23:25;102710.47;;;16.49;100.00
58955;BME280;45815;52.334;5.024;2022-07-10T03:25:51;102726.44;;;16.52;100.00
58955;BME280;45815;52.334;5.024;2022-07-10T03:28:21;102716.66;;;16.50;100.00
58955;BME280;45815;52.334;5.024;2022-07-10T03:30:46;102722.00;;;16.53;100.00
58955;BME280;45815;52.334;5.024;2022-07-10T03:33:11;102717.53;;;16.50;100.00
58955;BME280;45815;52.334;5.024;2022-07-10T03:35:37;102719.38;;;16.53;100.00
58955;BME280;45815;52.334;5.024;2022-07-10T03:38:02;102710.53;;;16.52;100.00
58955;BME280;45815;52.334;5.024;2022-07-10T03:40:27;102699.84;;;16.49;100.00
58955;BME280;45815;52.334;5.024;2022-07-10T03:42:53;102711.41;;;16.51;100.00
58955;BME280;45815;52.334;5.024;2022-07-10T03:45:18;102705.22;;;16.52;100.00
58955;BME280;45815;52.334;5.024;2022-07-10T03:47:44;102699.91;;;16.52;100.00
58955;BME280;45815;52.334;5.024;2022-07-10T03:50:10;102692.00;;;16.54;100.00
58955;BME280;45815;52.334;5.024;2022-07-10T03:52:35;102700.06;;;16.58;100.00
58955;BME280;45815;52.334;5.024;2022-07-10T03:55:01;102703.66;;;16.60;100.00
58955;BME280;45815;52.334;5.024;2022-07-10T03:57:26;102701.94;;;16.62;100.00
58955;BME280;45815;52.334;5.024;2022-07-10T04:00:10;102702.00;;;16.65;100.00
58955;BME280;45815;52.334;5.024;2022-07-10T04:02:39;102699.31;;;16.62;100.00
58955;BME280;45815;52.334;5.024;2022-07-10T04:05:08;102693.16;;;16.65;100.00
58955;BME280;45815;52.334;5.024;2022-07-10T04:07:34;102692.28;;;16.66;100.00
58955;BME280;45815;52.334;5.024;2022-07-10T04:10:00;102702.97;;;16.69;100.00
58955;BME280;45815;52.334;5.024;2022-07-10T04:12:26;102694.16;;;16.70;100.00
58955;BME280;45815;52.334;5.024;2022-07-10T04:14:51;102702.13;;;16.70;100.00
58955;BME280;45815;52.334;5.024;2022-07-10T04:17:19;102692.34;;;16.67;100.00
58955;BME280;45815;52.334;5.024;2022-07-10T04:19:44;102695.00;;;16.67;100.00
58955;BME280;45815;52.334;5.024;2022-07-10T04:22:11;102698.59;;;16.71;100.00
58955;BME280;45815;52.334;5.024;2022-07-10T04:24:37;102695.06;;;16.71;100.00
58955;BME280;45815;52.334;5.024;2022-07-10T04:27:02;102696.88;;;16.72;100.00
58955;BME280;45815;52.334;5.024;2022-07-10T04:29:28;102703.06;;;16.74;100.00
58955;BME280;45815;52.334;5.024;2022-07-10T04:31:53;102704.00;;;16.76;100.00
58955;BME280;45815;52.334;5.024;2022-07-10T04:34:19;102692.56;;;16.77;100.00
58955;BME280;45815;52.334;5.024;2022-07-10T04:36:45;102697.72;;;16.71;100.00
58955;BME280;45815;52.334;5.024;2022-07-10T04:39:10;102693.28;;;16.71;100.00
58955;BME280;45815;52.334;5.024;2022-07-10T04:41:35;102698.66;;;16.73;100.00
58955;BME280;45815;52.334;5.024;2022-07-10T04:44:01;102702.19;;;16.73;100.00
58955;BME280;45815;52.334;5.024;2022-07-10T04:46:26;102707.53;;;16.75;100.00
58955;BME280;45815;52.334;5.024;2022-07-10T04:48:52;102701.34;;;16.74;100.00
58955;BME280;45815;52.334;5.024;2022-07-10T04:51:17;102712.78;;;16.72;100.00
58955;BME280;45815;52.334;5.024;2022-07-10T04:53:43;102716.44;;;16.77;100.00
58955;BME280;45815;52.334;5.024;2022-07-10T04:56:08;102710.25;;;16.78;100.00
58955;BME280;45815;52.334;5.024;2022-07-10T04:58:34;102713.66;;;16.72;100.00
58955;BME280;45815;52.334;5.024;2022-07-10T05:00:59;102707.53;;;16.75;100.00
58955;BME280;45815;52.334;5.024;2022-07-10T05:03:24;102704.13;;;16.79;100.00
58955;BME280;45815;52.334;5.024;2022-07-10T05:05:50;102691.63;;;16.75;100.00
58955;BME280;45815;52.334;5.024;2022-07-10T05:08:15;102709.50;;;16.82;100.00
58955;BME280;45815;52.334;5.024;2022-07-10T05:10:40;102708.56;;;16.80;100.00
58955;BME280;45815;52.334;5.024;2022-07-10T05:13:06;102710.34;;;16.81;100.00
58955;BME280;45815;52.334;5.024;2022-07-10T05:15:31;102712.91;;;16.78;100.00
58955;BME280;45815;52.334;5.024;2022-07-10T05:17:57;102714.75;;;16.79;100.00
58955;BME280;45815;52.334;5.024;2022-07-10T05:20:22;102710.06;;;16.70;100.00
58955;BME280;45815;52.334;5.024;2022-07-10T05:22:48;102700.19;;;16.63;100.00
58955;BME280;45815;52.334;5.024;2022-07-10T05:25:13;102710.91;;;16.69;100.00
58955;BME280;45815;52.334;5.024;2022-07-10T05:27:38;102713.56;;;16.67;100.00
58955;BME280;45815;52.334;5.024;2022-07-10T05:30:04;102703.84;;;16.68;100.00
58955;BME280;45815;52.334;5.024;2022-07-10T05:32:29;102714.59;;;16.74;100.00
58955;BME280;45815;52.334;5.024;2022-07-10T05:34:57;102712.00;;;16.77;100.00
58955;BME280;45815;52.334;5.024;2022-07-10T05:37:24;102716.44;;;16.77;100.00
58955;BME280;45815;52.334;5.024;2022-07-10T05:39:49;102711.22;;;16.80;100.00
58955;BME280;45815;52.334;5.024;2022-07-10T05:42:14;102709.50;;;16.82;100.00
58955;BME280;45815;52.334;5.024;2022-07-10T05:44:40;102686.34;;;16.76;100.00
58955;BME280;45815;52.334;5.024;2022-07-10T05:47:05;102707.00;;;16.88;100.00
58955;BME280;45815;52.334;5.024;2022-07-10T05:49:32;102706.91;;;16.85;100.00
58955;BME280;45815;52.334;5.024;2022-07-10T05:51:57;102694.63;;;16.88;100.00
58955;BME280;45815;52.334;5.024;2022-07-10T05:54:23;102709.78;;;16.94;100.00
58955;BME280;45815;52.334;5.024;2022-07-10T05:56:48;102709.84;;;16.97;100.00
58955;BME280;45815;52.334;5.024;2022-07-10T05:59:14;102707.19;;;16.97;100.00
58955;BME280;45815;52.334;5.024;2022-07-10T06:01:40;102699.16;;;16.94;100.00
58955;BME280;45815;52.334;5.024;2022-07-10T06:04:05;102713.41;;;16.99;100.00
58955;BME280;45815;52.334;5.024;2022-07-10T06:06:31;102709.06;;;17.01;100.00
58955;BME280;45815;52.334;5.024;2022-07-10T06:08:56;102710.03;;;17.06;100.00
58955;BME280;45815;52.334;5.024;2022-07-10T06:11:21;102716.22;;;17.05;100.00
58955;BME280;45815;52.334;5.024;2022-07-10T06:13:47;102714.50;;;17.09;100.00
58955;BME280;45815;52.334;5.024;2022-07-10T06:16:12;102709.16;;;17.06;100.00
58955;BME280;45815;52.334;5.024;2022-07-10T06:18:37;102710.97;;;17.07;100.00
58955;BME280;45815;52.334;5.024;2022-07-10T06:21:03;102714.56;;;17.11;100.00
58955;BME280;45815;52.334;5.024;2022-07-10T06:23:28;102711.03;;;17.10;100.00
58955;BME280;45815;52.334;5.024;2022-07-10T06:25:54;102717.16;;;17.07;100.00
58955;BME280;45815;52.334;5.024;2022-07-10T06:28:19;102717.94;;;17.03;100.00
58955;BME280;45815;52.334;5.024;2022-07-10T06:30:45;102718.88;;;17.05;100.00
58955;BME280;45815;52.334;5.024;2022-07-10T06:33:13;102711.78;;;17.04;100.00
58955;BME280;45815;52.334;5.024;2022-07-10T06:35:39;102718.09;;;17.09;100.00
58955;BME280;45815;52.334;5.024;2022-07-10T06:38:04;102720.84;;;17.16;100.00
58955;BME280;45815;52.334;5.024;2022-07-10T06:40:29;102720.94;;;17.19;100.00
58955;BME280;45815;52.334;5.024;2022-07-10T06:42:57;102714.75;;;17.20;100.00
58955;BME280;45815;52.334;5.024;2022-07-10T06:45:22;102715.69;;;17.22;100.00
58955;BME280;45815;52.334;5.024;2022-07-10T06:47:48;102713.00;;;17.20;100.00
58955;BME280;45815;52.334;5.024;2022-07-10T06:50:28;102721.16;;;17.29;100.00
58955;BME280;45815;52.334;5.024;2022-07-10T06:52:58;102715.94;;;17.34;100.00
58955;BME280;45815;52.334;5.024;2022-07-10T06:55:25;102730.22;;;17.39;100.00
58955;BME280;45815;52.334;5.024;2022-07-10T06:57:51;102730.16;;;17.36;100.00
58955;BME280;45815;52.334;5.024;2022-07-10T07:00:16;102727.56;;;17.39;100.00
58955;BME280;45815;52.334;5.024;2022-07-10T07:02:42;102726.75;;;17.43;100.00
58955;BME280;45815;52.334;5.024;2022-07-10T07:05:08;102735.72;;;17.48;100.00
58955;BME280;45815;52.334;5.024;2022-07-10T07:07:34;102722.44;;;17.47;100.00
58955;BME280;45815;52.334;5.024;2022-07-10T07:10:00;102718.84;;;17.46;100.00
58955;BME280;45815;52.334;5.024;2022-07-10T07:12:25;102720.78;;;17.54;100.00
58955;BME280;45815;52.334;5.024;2022-07-10T07:14:50;102727.09;;;17.59;100.00
58955;BME280;45815;52.334;5.024;2022-07-10T07:17:16;102719.97;;;17.56;100.00
58955;BME280;45815;52.334;5.024;2022-07-10T07:19:52;102720.06;;;17.62;100.00
58955;BME280;45815;52.334;5.024;2022-07-10T07:22:36;102720.16;;;17.67;100.00
58955;BME280;45815;52.334;5.024;2022-07-10T07:25:20;102729.09;;;17.72;100.00
58955;BME280;45815;52.334;5.024;2022-07-10T07:27:46;102725.59;;;17.73;100.00
58955;BME280;45815;52.334;5.024;2022-07-10T07:30:13;102721.97;;;17.68;100.00
58955;BME280;45815;52.334;5.024;2022-07-10T07:32:43;102720.28;;;17.73;100.00
58955;BME280;45815;52.334;5.024;2022-07-10T07:35:10;102724.00;;;17.81;100.00
58955;BME280;45815;52.334;5.024;2022-07-10T07:40:01;102713.38;;;17.81;100.00
58955;BME280;45815;52.334;5.024;2022-07-10T07:42:26;102725.09;;;17.92;100.00
58955;BME280;45815;52.334;5.024;2022-07-10T07:44:52;102720.91;;;18.04;100.00
58955;BME280;45815;52.334;5.024;2022-07-10T07:47:17;102721.03;;;18.10;100.00
58955;BME280;45815;52.334;5.024;2022-07-10T07:49:42;102731.78;;;18.18;100.00
58955;BME280;45815;52.334;5.024;2022-07-10T07:52:08;102715.03;;;18.22;100.00
58955;BME280;45815;52.334;5.024;2022-07-10T07:54:33;102709.88;;;18.31;100.00
58955;BME280;45815;52.334;5.024;2022-07-10T07:56:58;102713.56;;;18.42;100.00
58955;BME280;45815;52.334;5.024;2022-07-10T07:59:24;102718.28;;;18.57;100.00
58955;BME280;45815;52.334;5.024;2022-07-10T08:01:49;102720.16;;;18.64;100.00
58955;BME280;45815;52.334;5.024;2022-07-10T08:04:14;102722.06;;;18.74;100.00
58955;BME280;45815;52.334;5.024;2022-07-10T08:06:40;102718.72;;;18.85;100.00
58955;BME280;45815;52.334;5.024;2022-07-10T08:09:05;102713.41;;;18.85;100.00
58955;BME280;45815;52.334;5.024;2022-07-10T08:11:31;102718.88;;;18.95;100.00
58955;BME280;45815;52.334;5.024;2022-07-10T08:13:56;102708.25;;;18.98;100.00
58955;BME280;45815;52.334;5.024;2022-07-10T08:16:22;102710.28;;;19.16;100.00
58955;BME280;45815;52.334;5.024;2022-07-10T08:18:47;102708.66;;;19.28;100.00
58955;BME280;45815;52.334;5.024;2022-07-10T08:21:12;102702.59;;;19.39;100.00
58955;BME280;45815;52.334;5.024;2022-07-10T08:23:38;102695.72;;;19.58;100.00
58955;BME280;45815;52.334;5.024;2022-07-10T08:26:03;102691.31;;;19.60;100.00
58955;BME280;45815;52.334;5.024;2022-07-10T08:28:29;102695.94;;;19.74;100.00
58955;BME280;45815;52.334;5.024;2022-07-10T08:30:54;102685.25;;;19.75;100.00
58955;BME280;45815;52.334;5.024;2022-07-10T08:33:20;102687.25;;;19.93;100.00
58955;BME280;45815;52.334;5.024;2022-07-10T08:35:45;102698.03;;;20.07;100.00
58955;BME280;45815;52.334;5.024;2022-07-10T08:38:11;102695.44;;;20.15;100.00
58955;BME280;45815;52.334;5.024;2022-07-10T08:40:38;102692.88;;;20.26;100.00
58955;BME280;45815;52.334;5.024;2022-07-10T08:43:05;102682.25;;;20.30;100.00
58955;BME280;45815;52.334;5.024;2022-07-10T08:45:32;102686.75;;;20.40;100.00
58955;BME280;45815;52.334;5.024;2022-07-10T08:48:02;102685.00;;;20.42;100.00
58955;BME280;45815;52.334;5.024;2022-07-10T08:50:31;102684.09;;;20.40;100.00
58955;BME280;45815;52.334;5.024;2022-07-10T08:53:07;102689.59;;;20.56;100.00
58955;BME280;45815;52.334;5.024;2022-07-10T08:55:35;102694.03;;;20.57;100.00
58955;BME280;45815;52.334;5.024;2022-07-10T08:58:02;102691.22;;;20.46;100.00
58955;BME280;45815;52.334;5.024;2022-07-10T09:00:30;102700.19;;;20.53;100.00
58955;BME280;45815;52.334;5.024;2022-07-10T09:02:55;102699.41;;;20.63;100.00
58955;BME280;45815;52.334;5.024;2022-07-10T09:05:22;102696.75;;;20.63;100.00
58955;BME280;45815;52.334;5.024;2022-07-10T09:07:48;102687.78;;;20.58;100.00
58955;BME280;45815;52.334;5.024;2022-07-10T09:10:13;102697.59;;;20.62;100.00
58955;BME280;45815;52.334;5.024;2022-07-10T09:15:19;102683.34;;;20.60;100.00
58955;BME280;45815;52.334;5.024;2022-07-10T09:17:52;102694.06;;;20.63;100.00
58955;BME280;45815;52.334;5.024;2022-07-10T09:20:32;102690.56;;;20.70;100.00
58955;BME280;45815;52.334;5.024;2022-07-10T09:23:14;102680.75;;;20.69;100.00
58955;BME280;45815;52.334;5.024;2022-07-10T09:25:40;102679.06;;;20.80;100.00
58955;BME280;45815;52.334;5.024;2022-07-10T09:28:05;102677.34;;;20.89;100.00
58955;BME280;45815;52.334;5.024;2022-07-10T09:30:36;102670.25;;;20.97;100.00
58955;BME280;45815;52.334;5.024;2022-07-10T09:33:18;102660.41;;;20.86;100.00
58955;BME280;45815;52.334;5.024;2022-07-10T09:36:13;102669.38;;;20.98;100.00
58955;BME280;45815;52.334;5.024;2022-07-10T09:41:16;102684.59;;;21.14;100.00
58955;BME280;45815;52.334;5.024;2022-07-10T09:46:12;102677.50;;;21.27;100.00
58955;BME280;45815;52.334;5.024;2022-07-10T09:48:37;102673.94;;;21.28;100.00
58955;BME280;45815;52.334;5.024;2022-07-10T09:51:05;102673.97;;;21.34;100.00
58955;BME280;45815;52.334;5.024;2022-07-10T09:53:33;102667.69;;;21.27;100.00
58955;BME280;45815;52.334;5.024;2022-07-10T09:56:00;102665.91;;;21.23;100.00
58955;BME280;45815;52.334;5.024;2022-07-10T09:58:29;102665.94;;;21.26;100.00
58955;BME280;45815;52.334;5.024;2022-07-10T10:00:58;102658.81;;;21.32;100.00
58955;BME280;45815;52.334;5.024;2022-07-10T10:03:24;102659.81;;;21.47;100.00
58955;BME280;45815;52.334;5.024;2022-07-10T10:05:55;102663.38;;;21.53;100.00
58955;BME280;45815;52.334;5.024;2022-07-10T10:08:25;102644.72;;;21.63;100.00
58955;BME280;45815;52.334;5.024;2022-07-10T10:10:53;102659.88;;;21.75;100.00
58955;BME280;45815;52.334;5.024;2022-07-10T10:13:25;102660.75;;;21.91;100.00
58955;BME280;45815;52.334;5.024;2022-07-10T10:15:56;102663.44;;;22.06;100.00
58955;BME280;45815;52.334;5.024;2022-07-10T10:18:24;102664.31;;;22.10;100.00
58955;BME280;45815;52.334;5.024;2022-07-10T10:20:51;102653.63;;;22.14;100.00
58955;BME280;45815;52.334;5.024;2022-07-10T10:23:24;102662.56;;;22.33;100.00
58955;BME280;45815;52.334;5.024;2022-07-10T10:25:52;102653.63;;;22.51;100.00
58955;BME280;45815;52.334;5.024;2022-07-10T10:28:19;102665.22;;;22.64;100.00
58955;BME280;45815;52.334;5.024;2022-07-10T10:30:54;102664.34;;;22.56;100.00
58955;BME280;45815;52.334;5.024;2022-07-10T10:35:58;102667.91;;;22.44;100.00
58955;BME280;45815;52.334;5.024;2022-07-10T10:38:23;102665.25;;;22.23;100.00
58955;BME280;45815;52.334;5.024;2022-07-10T10:40:49;102659.91;;;22.23;100.00
58955;BME280;45815;52.334;5.024;2022-07-10T10:43:18;102661.69;;;22.34;100.00
58955;BME280;45815;52.334;5.024;2022-07-10T10:45:48;102661.69;;;22.48;100.00
58955;BME280;45815;52.334;5.024;2022-07-10T10:48:15;102664.31;;;22.54;100.00
58955;BME280;45815;52.334;5.024;2022-07-10T10:50:51;102658.97;;;22.67;100.00
58955;BME280;45815;52.334;5.024;2022-07-10T10:53:21;102641.97;;;22.75;100.00
58955;BME280;45815;52.334;5.024;2022-07-10T10:58:27;102653.53;;;22.88;100.00
58955;BME280;45815;52.334;5.024;2022-07-10T11:01:03;102647.28;;;22.89;100.00
58955;BME280;45815;52.334;5.024;2022-07-10T11:03:28;102645.50;;;23.02;100.00
58955;BME280;45815;52.334;5.024;2022-07-10T11:05:53;102637.41;;;23.13;100.00
58955;BME280;45815;52.334;5.024;2022-07-10T11:08:42;102649.03;;;23.06;100.00
58955;BME280;45815;52.334;5.024;2022-07-10T11:13:58;102640.81;;;23.43;100.00
58955;BME280;45815;52.334;5.024;2022-07-10T11:16:24;102649.78;;;23.42;100.00
58955;BME280;45815;52.334;5.024;2022-07-10T11:18:53;102647.13;;;23.35;100.00
58955;BME280;45815;52.334;5.024;2022-07-10T11:21:23;102645.22;;;23.54;100.00
58955;BME280;45815;52.334;5.024;2022-07-10T11:24:06;102640.75;;;23.58;100.00
58955;BME280;45815;52.334;5.024;2022-07-10T11:26:46;102640.91;;;23.30;100.00
58955;BME280;45815;52.334;5.024;2022-07-10T11:29:17;102633.66;;;23.51;100.00
58955;BME280;45815;52.334;5.024;2022-07-10T11:31:52;102628.09;;;23.78;100.00
58955;BME280;45815;52.334;5.024;2022-07-10T11:34:17;102621.59;;;24.09;100.00
58955;BME280;45815;52.334;5.024;2022-07-10T11:36:43;102627.88;;;24.09;100.00
58955;BME280;45815;52.334;5.024;2022-07-10T11:39:09;102633.81;;;24.40;100.00
58955;BME280;45815;52.334;5.024;2022-07-10T11:41:44;102626.50;;;24.61;100.00
58955;BME280;45815;52.334;5.024;2022-07-10T11:44:15;102626.56;;;24.53;100.00
58955;BME280;45815;52.334;5.024;2022-07-10T11:46:46;102621.34;;;24.36;100.00
58955;BME280;45815;52.334;5.024;2022-07-10T11:49:15;102625.00;;;24.29;100.00
58955;BME280;45815;52.334;5.024;2022-07-10T11:51:41;102624.06;;;24.30;100.00
58955;BME280;45815;52.334;5.024;2022-07-10T11:54:10;102627.72;;;24.25;100.00
58955;BME280;45815;52.334;5.024;2022-07-10T11:56:42;102625.19;;;24.06;100.00
58955;BME280;45815;52.334;5.024;2022-07-10T11:59:13;102609.91;;;24.17;100.00
58955;BME280;45815;52.334;5.024;2022-07-10T12:01:45;102615.25;;;24.17;100.00
58955;BME280;45815;52.334;5.024;2022-07-10T12:04:12;102618.78;;;24.26;100.00
58955;BME280;45815;52.334;5.024;2022-07-10T12:06:45;102613.41;;;24.26;100.00
58955;BME280;45815;52.334;5.024;2022-07-10T12:09:13;102613.47;;;24.19;100.00
58955;BME280;45815;52.334;5.024;2022-07-10T12:11:39;102614.38;;;24.15;100.00
58955;BME280;45815;52.334;5.024;2022-07-10T12:16:37;102618.50;;;24.56;100.00
58955;BME280;45815;52.334;5.024;2022-07-10T12:19:04;102621.13;;;24.58;100.00
58955;BME280;45815;52.334;5.024;2022-07-10T12:21:31;102620.16;;;24.65;100.00
58955;BME280;45815;52.334;5.024;2022-07-10T12:23:57;102607.88;;;24.42;100.00
58955;BME280;45815;52.334;5.024;2022-07-10T12:26:31;102618.72;;;24.29;100.00
58955;BME280;45815;52.334;5.024;2022-07-10T12:28:57;102614.19;;;24.35;100.00
58955;BME280;45815;52.334;5.024;2022-07-10T12:31:28;102607.88;;;24.41;100.00
58955;BME280;45815;52.334;5.024;2022-07-10T12:33:56;102616.00;;;24.30;100.00
58955;BME280;45815;52.334;5.024;2022-07-10T12:36:24;102618.66;;;24.35;100.00
58955;BME280;45815;52.334;5.024;2022-07-10T12:38:57;102608.88;;;24.31;100.00
58955;BME280;45815;52.334;5.024;2022-07-10T12:41:25;102618.66;;;24.36;100.00
58955;BME280;45815;52.334;5.024;2022-07-10T12:43:52;102614.13;;;24.43;100.00
58955;BME280;45815;52.334;5.024;2022-07-10T12:51:34;102609.75;;;24.33;100.00
58955;BME280;45815;52.334;5.024;2022-07-10T12:54:07;102610.59;;;24.38;100.00
58955;BME280;45815;52.334;5.024;2022-07-10T12:56:34;102606.25;;;24.25;100.00
58955;BME280;45815;52.334;5.024;2022-07-10T12:59:03;102601.63;;;24.42;100.00
58955;BME280;45815;52.334;5.024;2022-07-10T13:01:39;102613.19;;;24.46;100.00
58955;BME280;45815;52.334;5.024;2022-07-10T13:04:05;102608.59;;;24.60;100.00
58955;BME280;45815;52.334;5.024;2022-07-10T13:06:32;102606.72;;;24.67;100.00